Impacts TAF Board INFO
FOR SITUATIONAL AWARENESS. NOT TO BE USED FOR FLIGHT PLANNING PURPOSES.
IDs:

KJFK - New York/Kennedy Int, NY, US

Issued at 0240 UTC 12 Dec 2017
Updated at 0447 UTC 12 Dec 2017
Potential Impact None Slight Moderate High
Time0351Z 12/05Z 12/06Z 12/07Z 12/08Z 12/09Z 12/10Z 12/11Z 12/12Z 12/13Z 12/14Z 12/15Z 12/16Z 12/17Z>>
Type OBS PRVL PRVL PRVL PRVL PRVL PRVL PRVL PRVL PRVL PRVL PRVL PRVL PRVL
VIS 10 >6 >6 >6 >6 >6 >6 >6 >6 6 6 6 6 6
CIG 80 110 110 110 110 110 80 80 80 20 20 20 20 20
Cover OVC BKN BKN BKN BKN BKN OVC OVC OVC BKN BKN BKN BKN BKN
FltCat VFR VFR VFR VFR VFR VFR VFR VFR VFR MVFR MVFR MVFR MVFR MVFR
WX -- -- -- -- -- -- VCSH VCSH VCSH -RA -RA -RA -RA -RA
WDir 100 180 180 180 180 180 170 170 170 190 190 190 190 190
WSpd 4 6 6 6 6 6 10 10 10 12 12 12 12 12
WGst -- -- -- -- -- -- -- -- -- 18 18 18 18 18

Raw TAF
KJFK 120240Z 1203/1306 18006KT P6SM SCT045 BKN110
  FM121000 17010KT P6SM VCSH SCT025 OVC080
  FM121300 19012G18KT 6SM -RA BKN020
  FM121800 23015KT P6SM OVC025
  FM130000 27018G27KT P6SM BKN050


Raw METAR
KJFK 120351Z 10004KT 10SM BKN080 BKN120 OVC210 02/M03 A2998 RMK AO2 SLP152 T00221028
KJFK 120251Z 24005KT 10SM BKN085 OVC120 03/M04 A3000 RMK AO2 SLP159 T00281039 58008
KJFK 120151Z 26004KT 10SM BKN110 OVC250 03/M04 A3001 RMK AO2 SLP163 T00331039

METAR Board
Radar Display
Forecast Discussion

FOR SITUATIONAL AWARENESS. NOT TO BE USED FOR FLIGHT PLANNING PURPOSES.